| Date | Time | Temp. (oF) | Dew Point (oF) | Rel. Hum. (%) | Press. (in.) | Wind Dir. | Wind Speed (mph) | Hourly Rainfall (in.) |
|
|---|---|---|---|---|---|---|---|---|---|
| 1 | 12/19 | 00:00 | 26 | 24 | 94 | 30.31 | S | 0 | 0.00 |
| 2 | 12/18 | 23:00 | 27 | 24 | 92 | 30.33 | WNW | 0 | 0.00 |
| 3 | 12/18 | 22:00 | 27 | 24 | 90 | 30.36 | W | 0 | 0.00 |
| 4 | 12/18 | 21:00 | 27 | 23 | 85 | 30.37 | NNW | 0 | 0.00 |
| 5 | 12/18 | 20:00 | 28 | 23 | 83 | 30.39 | NNW | 0 | 0.00 |
| 6 | 12/18 | 19:00 | 30 | 23 | 77 | 30.41 | NNW | 0 | 0.00 |
| 7 | 12/18 | 18:00 | 34 | 25 | 70 | 30.41 | NNW | 0 | 0.00 |
| 8 | 12/18 | 17:00 | 37 | 25 | 62 | 30.40 | N | 1 | 0.00 |
| 9 | 12/18 | 16:00 | 40 | 25 | 57 | 30.40 | W | 2 | 0.00 |
| 10 | 12/18 | 15:00 | 40 | 26 | 58 | 30.41 | W | 1 | 0.00 |
| 11 | 12/18 | 14:00 | 40 | 26 | 59 | 30.42 | SW | 4 | 0.00 |
| 12 | 12/18 | 13:00 | 38 | 26 | 62 | 30.44 | W | 1 | 0.00 |
| 13 | 12/18 | 12:00 | 37 | 27 | 67 | 30.48 | WSW | 2 | 0.00 |
| 14 | 12/18 | 11:00 | 35 | 27 | 74 | 30.52 | WNW | 6 | 0.00 |
| 15 | 12/18 | 10:00 | 31 | 29 | 95 | 30.54 | S | 4 | 0.00 |
| 16 | 12/18 | 09:00 | 26 | 26 | 100 | 30.54 | SSW | 0 | 0.00 |
| 17 | 12/18 | 08:00 | 25 | 24 | 100 | 30.53 | SSW | 1 | 0.00 |
| 18 | 12/18 | 07:00 | 25 | 24 | 100 | 30.51 | NNW | 0 | 0.00 |
| 19 | 12/18 | 06:00 | 25 | 24 | 100 | 30.50 | NNW | 0 | 0.00 |
| 20 | 12/18 | 05:00 | 24 | 23 | 99 | 30.52 | N | 0 | 0.00 |
| 21 | 12/18 | 04:00 | 24 | 23 | 98 | 30.53 | NNW | 0 | 0.00 |
| 22 | 12/18 | 03:00 | 24 | 23 | 98 | 30.54 | NNW | 0 | 0.00 |
| 23 | 12/18 | 02:00 | 24 | 23 | 97 | 30.53 | N | 0 | 0.00 |
| 24 | 12/18 | 01:00 | 24 | 23 | 97 | 30.52 | N | 1 | 0.00 |